Time;durP1;ratioP1;P1;durP2;ratioP2;P2;SDS_P1;SDS_P2;PMS_P1;PMS_P2;Temp;Humidity;BMP_temperature;BMP_pressure;BME280_temperature;BME280_humidity;BME280_pressure;Samples;Min_cycle;Max_cycle;Signal;HPM_P1;HPM_P2
2020/12/08 00:01:23;;;;;;;4.07;2.47;;;1.90;99.90;;;;;;4238629;27;20275;-43
2020/12/08 00:03:25;;;;;;;5.90;2.80;;;1.90;99.90;;;;;;4239800;27;20649;-48
2020/12/08 00:05:26;;;;;;;4.27;2.60;;;1.90;99.90;;;;;;4239332;27;20283;-45
2020/12/08 00:07:27;;;;;;;7.67;2.77;;;1.90;99.90;;;;;;4238769;27;20279;-50
2020/12/08 00:09:28;;;;;;;4.83;2.97;;;2.00;99.90;;;;;;4238912;27;20314;-54
2020/12/08 00:11:30;;;;;;;5.60;2.53;;;1.90;99.90;;;;;;4239507;27;20686;-47
2020/12/08 00:13:31;;;;;;;4.87;2.37;;;2.00;99.90;;;;;;4220283;28;20280;-45
2020/12/08 00:15:32;;;;;;;3.17;2.47;;;2.00;99.90;;;;;;4238403;27;20271;-51
2020/12/08 00:17:33;;;;;;;2.70;2.10;;;2.00;99.90;;;;;;4238787;27;20770;-42
2020/12/08 00:19:34;;;;;;;5.27;2.40;;;2.00;99.90;;;;;;4238414;27;20275;-47
2020/12/08 00:21:35;;;;;;;4.63;2.07;;;2.00;99.90;;;;;;4238514;27;20325;-43
2020/12/08 00:23:36;;;;;;;3.63;2.27;;;2.00;99.90;;;;;;4238092;27;20681;-48
2020/12/08 00:25:37;;;;;;;4.67;2.40;;;2.00;99.90;;;;;;4239414;27;20299;-49
2020/12/08 00:27:39;;;;;;;4.40;2.67;;;2.00;99.90;;;;;;4238903;27;20316;-48
2020/12/08 00:29:40;;;;;;;4.43;2.50;;;2.00;99.90;;;;;;4238630;27;20348;-46
2020/12/08 00:31:42;;;;;;;4.43;2.77;;;2.00;99.90;;;;;;4238581;27;20849;-47
2020/12/08 00:33:43;;;;;;;9.33;2.90;;;1.90;99.90;;;;;;4238449;28;20267;-47
2020/12/08 00:35:44;;;;;;;4.33;3.10;;;2.00;99.90;;;;;;4240194;27;20336;-44
2020/12/08 00:37:46;;;;;;;5.23;2.93;;;1.90;99.90;;;;;;4255790;27;20279;-44
2020/12/08 00:39:47;;;;;;;5.53;2.93;;;1.90;99.90;;;;;;4255360;27;20271;-49
2020/12/08 00:41:49;;;;;;;5.33;3.27;;;1.90;99.90;;;;;;4257221;27;20334;-52
2020/12/08 00:43:52;;;;;;;6.70;3.10;;;1.90;99.90;;;;;;4255791;27;20266;-57
2020/12/08 00:45:53;;;;;;;8.67;3.20;;;1.90;99.90;;;;;;4255964;27;20335;-43
2020/12/08 00:47:54;;;;;;;4.77;2.63;;;1.90;99.90;;;;;;4255880;27;20730;-47
2020/12/08 00:49:55;;;;;;;5.47;3.23;;;1.90;99.90;;;;;;4256367;27;20270;-45
2020/12/08 00:51:57;;;;;;;6.37;3.47;;;1.90;99.90;;;;;;4255784;27;20326;-54
2020/12/08 00:54:01;;;;;;;3.93;3.00;;;1.80;99.90;;;;;;4238806;28;20271;-42
2020/12/08 00:56:09;;;;;;;5.07;3.20;;;1.90;99.90;;;;;;4238114;28;20336;-42
2020/12/08 00:58:10;;;;;;;6.90;3.17;;;1.90;99.90;;;;;;4239303;28;20328;-45
2020/12/08 01:00:11;;;;;;;5.47;3.67;;;1.90;99.90;;;;;;4236213;28;20877;-45
2020/12/08 01:02:18;;;;;;;8.47;3.50;;;1.90;99.90;;;;;;4238606;28;20320;-45
2020/12/08 01:04:19;;;;;;;5.37;2.43;;;1.90;99.90;;;;;;4219906;28;20321;-42
2020/12/08 01:06:20;;;;;;;6.13;3.27;;;1.90;99.90;;;;;;4238427;28;20738;-42
2020/12/08 01:08:21;;;;;;;8.93;3.07;;;1.90;99.90;;;;;;4238705;28;20316;-42
2020/12/08 01:10:22;;;;;;;5.37;2.60;;;1.90;99.90;;;;;;4238969;28;20271;-46
2020/12/08 01:12:23;;;;;;;5.00;2.27;;;1.90;99.90;;;;;;4238163;28;21093;-48
2020/12/08 01:14:25;;;;;;;6.90;2.80;;;2.00;99.90;;;;;;4238220;28;20348;-43
2020/12/08 01:16:26;;;;;;;3.83;2.43;;;2.00;99.90;;;;;;4239334;28;20310;-52
2020/12/08 01:18:27;;;;;;;3.87;2.30;;;2.00;99.90;;;;;;4238042;28;20275;-43
2020/12/08 01:20:29;;;;;;;3.60;1.87;;;2.00;99.90;;;;;;4238307;28;20267;-52
2020/12/08 01:22:30;;;;;;;4.33;2.10;;;2.00;99.90;;;;;;4237411;28;20288;-44
2020/12/08 01:24:31;;;;;;;3.87;2.43;;;2.00;99.90;;;;;;4239225;28;20688;-54
2020/12/08 01:26:32;;;;;;;3.90;2.40;;;2.00;99.90;;;;;;4238161;28;20287;-42
2020/12/08 01:28:33;;;;;;;3.60;2.20;;;2.00;99.90;;;;;;4238792;28;20275;-45
2020/12/08 01:30:34;;;;;;;4.97;2.37;;;2.00;99.90;;;;;;4237843;28;20716;-47
2020/12/08 01:32:35;;;;;;;3.87;2.23;;;2.00;99.90;;;;;;4237561;28;20345;-46
2020/12/08 01:34:37;;;;;;;5.20;2.70;;;2.00;99.90;;;;;;4240458;27;20327;-45
2020/12/08 01:36:38;;;;;;;3.47;2.13;;;2.00;99.90;;;;;;4241302;27;20363;-42
2020/12/08 01:38:39;;;;;;;4.73;2.30;;;2.00;99.90;;;;;;4241200;27;20893;-41
2020/12/08 01:40:40;;;;;;;3.37;2.07;;;2.00;99.90;;;;;;4240438;27;20279;-46
2020/12/08 01:42:43;;;;;;;6.23;2.20;;;2.00;99.90;;;;;;4240873;27;20271;-43
2020/12/08 01:44:48;;;;;;;2.67;2.27;;;2.00;99.90;;;;;;4241492;27;20305;-44
2020/12/08 01:46:49;;;;;;;3.43;2.20;;;2.00;99.90;;;;;;4241968;27;20267;-50
2020/12/08 01:48:52;;;;;;;4.37;2.27;;;2.10;99.90;;;;;;4241309;27;20352;-52
2020/12/08 01:50:53;;;;;;;3.57;2.33;;;2.10;99.90;;;;;;4241811;27;20263;-44
2020/12/08 01:52:55;;;;;;;3.83;2.10;;;2.10;99.90;;;;;;4240939;27;21233;-47
2020/12/08 01:55:00;;;;;;;3.23;1.97;;;2.10;99.90;;;;;;4241519;27;20280;-48
2020/12/08 01:57:03;;;;;;;4.30;2.20;;;2.10;99.90;;;;;;4240825;27;20379;-54
2020/12/08 01:59:05;;;;;;;4.00;2.00;;;2.20;99.90;;;;;;4241208;27;20287;-45
2020/12/08 02:01:10;;;;;;;4.77;2.23;;;2.20;99.90;;;;;;4241155;27;20252;-48
2020/12/08 02:03:11;;;;;;;4.90;2.07;;;2.10;99.90;;;;;;4240519;27;20687;-47
2020/12/08 02:05:12;;;;;;;2.90;1.83;;;2.20;99.90;;;;;;4241296;27;20326;-55
2020/12/08 02:07:13;;;;;;;2.27;1.50;;;2.20;99.90;;;;;;4241121;27;20649;-46
2020/12/08 02:09:14;;;;;;;3.27;1.93;;;2.20;99.90;;;;;;4240965;27;20267;-48
2020/12/08 02:11:15;;;;;;;3.33;1.87;;;2.20;99.90;;;;;;4240522;27;20279;-44
2020/12/08 02:13:17;;;;;;;3.27;1.20;;;2.20;99.90;;;;;;4241153;27;20738;-43
2020/12/08 02:15:18;;;;;;;2.93;1.80;;;2.30;99.90;;;;;;4240115;27;20815;-46
2020/12/08 02:17:19;;;;;;;2.07;1.30;;;2.30;99.90;;;;;;4240771;27;20267;-51
2020/12/08 02:19:20;;;;;;;2.23;1.43;;;2.30;99.90;;;;;;4239954;27;20645;-55
2020/12/08 02:21:30;;;;;;;3.60;2.00;;;2.30;99.90;;;;;;4240683;27;20275;-42
2020/12/08 02:23:32;;;;;;;2.72;1.58;;;2.30;99.90;;;;;;4239866;27;20328;-48
2020/12/08 02:25:33;;;;;;;3.20;1.30;;;2.30;99.90;;;;;;4241307;27;20112;-55
2020/12/08 02:27:34;;;;;;;3.13;1.37;;;2.30;99.90;;;;;;4222308;28;20350;-48
2020/12/08 02:29:35;;;;;;;2.50;1.40;;;2.30;99.90;;;;;;4241278;27;20332;-42
2020/12/08 02:31:37;;;;;;;2.13;1.20;;;2.30;99.90;;;;;;4240624;27;20823;-49
2020/12/08 02:33:38;;;;;;;1.93;1.40;;;2.30;99.90;;;;;;4239696;27;20351;-53
2020/12/08 02:35:40;;;;;;;2.27;1.27;;;2.30;99.90;;;;;;4223056;28;20272;-42
2020/12/08 02:37:41;;;;;;;2.67;1.27;;;2.30;99.90;;;;;;4223602;28;20320;-43
2020/12/08 02:39:42;;;;;;;3.27;1.93;;;2.30;99.90;;;;;;4222919;28;20268;-42
2020/12/08 02:41:43;;;;;;;2.03;1.10;;;2.30;99.90;;;;;;4223706;28;20268;-43
2020/12/08 02:43:44;;;;;;;2.60;1.40;;;2.30;99.90;;;;;;4227997;27;20778;-47
2020/12/08 02:45:45;;;;;;;2.37;1.50;;;2.30;99.90;;;;;;4239673;27;20407;-46
2020/12/08 02:47:47;;;;;;;3.13;1.53;;;2.30;99.90;;;;;;4241111;27;20255;-46
2020/12/08 02:49:48;;;;;;;3.97;1.53;;;2.30;99.90;;;;;;4240691;27;20336;-41
2020/12/08 02:51:54;;;;;;;3.03;1.43;;;2.30;99.90;;;;;;4240490;27;20336;-44
2020/12/08 02:53:55;;;;;;;2.37;1.40;;;2.30;99.90;;;;;;4239847;27;20665;-42
2020/12/08 02:55:57;;;;;;;1.90;1.33;;;2.30;99.90;;;;;;4240440;27;20331;-48
2020/12/08 02:57:58;;;;;;;1.70;1.20;;;2.30;99.90;;;;;;4239426;27;20283;-42
2020/12/08 02:59:59;;;;;;;3.40;1.37;;;2.30;99.90;;;;;;4241001;27;20324;-50
2020/12/08 03:02:01;;;;;;;2.57;1.30;;;2.30;99.90;;;;;;4239836;27;20264;-46
2020/12/08 03:04:02;;;;;;;2.80;1.47;;;2.30;99.90;;;;;;4240483;27;21158;-44
2020/12/08 03:06:05;;;;;;;1.47;1.10;;;2.30;99.90;;;;;;4239488;27;20323;-48
2020/12/08 03:08:06;;;;;;;2.30;1.33;;;2.30;99.90;;;;;;4239767;27;20290;-43
2020/12/08 03:10:08;;;;;;;2.80;1.70;;;2.20;99.90;;;;;;4239575;27;20317;-45
2020/12/08 03:12:09;;;;;;;3.37;1.57;;;2.20;99.90;;;;;;4240014;27;20275;-44
2020/12/08 03:14:10;;;;;;;4.00;1.40;;;2.20;99.90;;;;;;4239465;27;20279;-40
2020/12/08 03:16:16;;;;;;;2.63;1.60;;;2.30;99.90;;;;;;4239833;27;20775;-49
2020/12/08 03:18:17;;;;;;;1.63;1.27;;;2.20;99.90;;;;;;4240088;27;20757;-44
2020/12/08 03:20:19;;;;;;;2.13;1.63;;;2.20;99.90;;;;;;4239485;27;20263;-46
2020/12/08 03:22:20;;;;;;;2.50;1.40;;;2.20;99.90;;;;;;4239762;27;20267;-42
2020/12/08 03:24:21;;;;;;;1.50;1.10;;;2.20;99.90;;;;;;4239285;27;20774;-48
2020/12/08 03:26:22;;;;;;;2.30;1.13;;;2.20;99.90;;;;;;4221380;28;20295;-57
2020/12/08 03:28:23;;;;;;;3.63;1.50;;;2.10;99.90;;;;;;4238898;27;20271;-46
2020/12/08 03:30:24;;;;;;;2.03;1.40;;;2.10;99.90;;;;;;4239487;27;20268;-49
2020/12/08 03:32:25;;;;;;;5.10;1.37;;;2.10;99.90;;;;;;4239422;27;20271;-47
2020/12/08 03:34:26;;;;;;;2.93;1.47;;;2.10;99.90;;;;;;4239461;27;20636;-56
2020/12/08 03:36:29;;;;;;;3.20;1.57;;;2.00;99.90;;;;;;4239528;27;20279;-44
2020/12/08 03:38:30;;;;;;;1.73;1.20;;;2.00;99.90;;;;;;4239100;27;20664;-45
2020/12/08 03:40:31;;;;;;;3.47;2.03;;;2.00;99.90;;;;;;4239917;27;20275;-43
2020/12/08 03:42:32;;;;;;;2.90;1.30;;;2.00;99.90;;;;;;4240460;27;20752;-50
2020/12/08 03:44:33;;;;;;;3.17;1.53;;;2.10;99.90;;;;;;4239419;27;20267;-55
2020/12/08 03:46:34;;;;;;;3.50;1.20;;;2.00;99.90;;;;;;4239684;27;20295;-43
2020/12/08 03:48:35;;;;;;;10.70;1.10;;;2.00;99.90;;;;;;4239077;27;20344;-52
2020/12/08 03:50:36;;;;;;;1.73;1.30;;;2.00;99.90;;;;;;4239137;27;20779;-46
2020/12/08 03:52:37;;;;;;;2.00;1.50;;;2.00;99.90;;;;;;4239034;27;20321;-42
2020/12/08 03:54:39;;;;;;;2.60;1.20;;;1.90;99.90;;;;;;4238937;27;20315;-44
2020/12/08 03:56:44;;;;;;;3.23;1.30;;;1.90;99.90;;;;;;4238941;27;20305;-46
2020/12/08 03:58:46;;;;;;;2.70;1.37;;;1.90;99.90;;;;;;4239292;27;20244;-56
2020/12/08 04:00:48;;;;;;;2.40;1.30;;;1.90;99.90;;;;;;4239302;27;20271;-48
2020/12/08 04:02:49;;;;;;;1.97;1.30;;;1.90;99.90;;;;;;4238495;27;20256;-44
2020/12/08 04:04:50;;;;;;;2.80;1.33;;;1.90;99.90;;;;;;4239788;27;20263;-46
2020/12/08 04:06:51;;;;;;;5.00;1.50;;;1.90;99.90;;;;;;4220286;28;20291;-43
2020/12/08 04:08:52;;;;;;;2.50;1.50;;;1.90;99.90;;;;;;4239913;27;20279;-41
2020/12/08 04:10:54;;;;;;;2.10;1.30;;;1.90;99.90;;;;;;4239027;27;20318;-46
2020/12/08 04:12:55;;;;;;;3.57;1.43;;;1.90;99.90;;;;;;4239683;27;20756;-42
2020/12/08 04:14:56;;;;;;;2.50;1.47;;;1.80;99.90;;;;;;4239267;27;20914;-47
2020/12/08 04:16:57;;;;;;;4.57;1.70;;;1.80;99.90;;;;;;4238307;27;20332;-43
2020/12/08 04:18:59;;;;;;;3.90;2.03;;;1.80;99.90;;;;;;4238311;27;20287;-54
2020/12/08 04:21:00;;;;;;;6.00;2.30;;;1.80;99.90;;;;;;4239075;27;20275;-41
2020/12/08 04:23:01;;;;;;;4.53;2.30;;;1.80;99.90;;;;;;4238106;27;20677;-48
2020/12/08 04:25:02;;;;;;;3.63;2.30;;;1.70;99.90;;;;;;4239178;27;20267;-47
2020/12/08 04:27:03;;;;;;;6.27;2.90;;;1.70;99.90;;;;;;4239613;27;20283;-50
2020/12/08 04:29:05;;;;;;;7.83;3.80;;;1.70;99.90;;;;;;4238653;27;20279;-45
2020/12/08 04:31:12;;;;;;;7.50;3.97;;;1.70;99.90;;;;;;4239644;27;20394;-43
2020/12/08 04:33:13;;;;;;;5.70;3.30;;;1.70;99.90;;;;;;4238314;27;20327;-43
2020/12/08 04:35:14;;;;;;;7.70;3.20;;;1.60;99.90;;;;;;4239416;27;20332;-44
2020/12/08 04:37:16;;;;;;;5.50;2.70;;;1.60;99.90;;;;;;4219911;28;20328;-51
2020/12/08 04:39:17;;;;;;;5.40;3.53;;;1.60;99.90;;;;;;4238131;28;20260;-50
2020/12/08 04:41:22;;;;;;;6.40;3.00;;;1.50;99.90;;;;;;4238852;28;20677;-52
2020/12/08 04:43:23;;;;;;;6.63;3.20;;;1.50;99.90;;;;;;4239561;28;20263;-47
2020/12/08 04:45:25;;;;;;;5.30;2.90;;;1.50;99.90;;;;;;4238377;28;20367;-58
2020/12/08 04:47:28;;;;;;;7.17;3.37;;;1.40;99.90;;;;;;4238623;28;20897;-49
2020/12/08 04:49:29;;;;;;;3.57;2.90;;;1.30;99.90;;;;;;4238421;28;20332;-50
2020/12/08 04:51:30;;;;;;;5.10;3.27;;;1.30;99.90;;;;;;4238476;28;20336;-43
2020/12/08 04:53:32;;;;;;;5.67;3.20;;;1.30;99.90;;;;;;4238804;28;20284;-50
2020/12/08 04:55:33;;;;;;;7.40;3.17;;;1.30;99.90;;;;;;4238264;28;20279;-43
2020/12/08 04:57:35;;;;;;;6.50;3.43;;;1.30;99.90;;;;;;4238328;28;20316;-43
2020/12/08 04:59:38;;;;;;;5.10;3.07;;;1.30;99.90;;;;;;4238358;28;20283;-49
2020/12/08 05:01:39;;;;;;;5.67;3.67;;;1.30;99.90;;;;;;4238530;28;20290;-48
2020/12/08 05:03:41;;;;;;;6.67;4.07;;;1.20;99.90;;;;;;4237627;28;20345;-44
2020/12/08 05:05:43;;;;;;;7.43;4.00;;;1.20;99.90;;;;;;4238304;28;20300;-45
2020/12/08 05:07:45;;;;;;;4.47;3.17;;;1.20;99.90;;;;;;4238121;27;20267;-53
2020/12/08 05:09:46;;;;;;;7.47;3.63;;;1.20;99.90;;;;;;4241238;27;20963;-44
2020/12/08 05:11:54;;;;;;;5.00;3.27;;;1.20;99.90;;;;;;4241519;27;20263;-44
2020/12/08 05:14:00;;;;;;;5.93;3.23;;;1.20;99.90;;;;;;4241884;27;20300;-45
2020/12/08 05:16:03;;;;;;;10.27;3.73;;;1.20;99.90;;;;;;4240114;27;20335;-46
2020/12/08 05:18:06;;;;;;;8.73;4.83;;;1.20;99.90;;;;;;4241347;27;20589;-44
2020/12/08 05:20:09;;;;;;;9.10;4.30;;;1.20;99.90;;;;;;4241877;27;20336;-44
2020/12/08 05:22:11;;;;;;;8.53;4.10;;;1.10;99.90;;;;;;4242282;27;20255;-44
2020/12/08 05:24:25;;;;;;;9.37;4.77;;;1.00;99.90;;;;;;4241728;27;20320;-44
2020/12/08 05:26:28;;;;;;;6.73;3.90;;;1.10;99.90;;;;;;4241439;27;20279;-45
2020/12/08 05:28:29;;;;;;;7.10;3.83;;;1.00;99.90;;;;;;4239161;27;20279;-46
2020/12/08 05:30:30;;;;;;;7.13;4.30;;;1.00;99.90;;;;;;4237356;27;20276;-43
2020/12/08 05:32:35;;;;;;;5.20;3.70;;;0.90;99.90;;;;;;4240507;27;20336;-42
2020/12/08 05:34:38;;;;;;;6.73;3.90;;;0.90;99.90;;;;;;4240830;27;21037;-43
2020/12/08 05:36:46;;;;;;;7.90;4.27;;;0.80;99.90;;;;;;4242000;27;20727;-48
2020/12/08 05:38:50;;;;;;;6.20;3.87;;;0.80;99.90;;;;;;4241678;27;20271;-49
2020/12/08 05:40:52;;;;;;;8.10;4.40;;;0.70;99.90;;;;;;4239217;27;20363;-46
2020/12/08 05:42:54;;;;;;;11.40;5.27;;;0.70;99.90;;;;;;4232516;27;20287;-44
2020/12/08 05:44:55;;;;;;;9.33;5.67;;;0.60;99.90;;;;;;4229173;27;20688;-54
2020/12/08 05:46:56;;;;;;;12.90;5.70;;;0.60;99.90;;;;;;4239047;27;20340;-45
2020/12/08 05:48:58;;;;;;;13.00;6.13;;;0.50;99.90;;;;;;4242350;27;21555;-38
2020/12/08 05:51:06;;;;;;;9.50;5.47;;;0.50;99.90;;;;;;4240704;27;20323;-37
2020/12/08 05:53:11;;;;;;;9.17;5.10;;;0.50;99.90;;;;;;4241362;27;20485;-46
2020/12/08 05:55:23;;;;;;;5.37;3.37;;;0.40;99.90;;;;;;4241459;27;20390;-41
2020/12/08 05:57:31;;;;;;;6.53;3.70;;;0.50;99.90;;;;;;4238851;27;20336;-42
2020/12/08 05:59:32;;;;;;;6.63;3.87;;;0.50;99.90;;;;;;4238663;27;20348;-57
2020/12/08 06:01:34;;;;;;;8.87;3.40;;;0.50;99.90;;;;;;4241145;27;20320;-58
2020/12/08 06:03:36;;;;;;;8.43;3.97;;;0.50;99.90;;;;;;4238552;27;20271;-38
2020/12/08 06:05:38;;;;;;;9.70;4.03;;;0.60;99.90;;;;;;4239558;27;20332;-42
2020/12/08 06:07:39;;;;;;;5.27;3.40;;;0.50;99.90;;;;;;4240579;27;20340;-38
2020/12/08 06:09:41;;;;;;;5.87;3.40;;;0.60;99.90;;;;;;4241189;27;20328;-42
2020/12/08 06:11:42;;;;;;;5.20;2.97;;;0.60;99.90;;;;;;4241322;27;20275;-40
2020/12/08 06:13:48;;;;;;;4.60;2.47;;;0.60;99.90;;;;;;4241467;27;20316;-43
2020/12/08 06:15:49;;;;;;;4.07;2.43;;;0.60;99.90;;;;;;4241205;27;20405;-51
2020/12/08 06:17:51;;;;;;;4.40;2.27;;;0.70;99.90;;;;;;4240462;27;20324;-48
2020/12/08 06:19:52;;;;;;;4.13;2.33;;;0.70;99.90;;;;;;4241163;27;20312;-40
2020/12/08 06:21:53;;;;;;;3.83;1.77;;;0.70;99.90;;;;;;4240456;27;20267;-49
2020/12/08 06:23:59;;;;;;;4.97;1.87;;;0.70;99.90;;;;;;4240902;27;20344;-52
2020/12/08 06:26:01;;;;;;;4.73;2.23;;;0.70;99.90;;;;;;4240808;27;20259;-43
2020/12/08 06:28:03;;;;;;;7.87;4.30;;;0.80;99.90;;;;;;4240871;27;20719;-42
2020/12/08 06:30:05;;;;;;;8.90;3.90;;;0.80;99.90;;;;;;4240735;27;20300;-42
2020/12/08 06:32:06;;;;;;;8.87;4.00;;;0.80;99.90;;;;;;4241257;27;20327;-35
2020/12/08 06:34:07;;;;;;;5.10;3.27;;;0.70;99.90;;;;;;4240013;27;20264;-36
2020/12/08 06:36:08;;;;;;;7.37;3.20;;;0.70;99.90;;;;;;4240231;27;20316;-34
2020/12/08 06:38:09;;;;;;;4.53;3.03;;;0.70;99.90;;;;;;4240586;27;20328;-35
2020/12/08 06:40:14;;;;;;;4.67;2.40;;;0.70;99.90;;;;;;4240589;27;20317;-35
2020/12/08 06:42:15;;;;;;;4.00;2.80;;;0.70;99.90;;;;;;4239821;27;20308;-38
2020/12/08 06:44:20;;;;;;;7.20;2.83;;;0.60;99.90;;;;;;4240381;27;20351;-52
2020/12/08 06:46:21;;;;;;;4.33;2.47;;;0.60;99.90;;;;;;4240032;27;20762;-36
2020/12/08 06:48:22;;;;;;;7.90;2.43;;;0.60;99.90;;;;;;4239351;27;20267;-52
2020/12/08 06:50:31;;;;;;;5.47;2.57;;;0.60;99.90;;;;;;4239542;27;20577;-55
2020/12/08 06:52:34;;;;;;;4.23;2.37;;;0.60;99.90;;;;;;4234066;27;20739;-34
2020/12/08 06:54:35;;;;;;;5.80;2.97;;;0.60;99.90;;;;;;4223423;28;20264;-37
2020/12/08 06:56:36;;;;;;;7.50;2.83;;;0.60;99.90;;;;;;4223207;28;20332;-35
2020/12/08 06:58:47;;;;;;;5.77;3.13;;;0.60;99.90;;;;;;4237850;27;20279;-42
2020/12/08 07:00:48;;;;;;;7.22;3.00;;;0.60;99.90;;;;;;4222688;28;20284;-35
2020/12/08 07:02:51;;;;;;;9.80;3.70;;;0.60;99.90;;;;;;4223493;28;20039;-41
2020/12/08 07:04:53;;;;;;;9.13;4.10;;;0.60;99.90;;;;;;4235252;27;20689;-38
2020/12/08 07:06:57;;;;;;;5.80;3.03;;;0.60;99.90;;;;;;4221430;28;20295;-62
2020/12/08 07:08:58;;;;;;;9.10;4.07;;;0.70;99.90;;;;;;4220833;28;20321;-57
2020/12/08 07:11:00;;;;;;;9.80;4.27;;;0.70;99.90;;;;;;4241369;27;20910;-59
2020/12/08 07:13:01;;;;;;;12.20;4.50;;;0.70;99.90;;;;;;4220751;28;20318;-46
2020/12/08 07:15:02;;;;;;;7.27;3.60;;;0.70;99.90;;;;;;4223274;28;20260;-37
2020/12/08 07:17:04;;;;;;;4.90;3.40;;;0.70;99.90;;;;;;4222759;28;20324;-43
2020/12/08 07:19:06;;;;;;;9.80;5.70;;;0.80;99.90;;;;;;4222537;28;20289;-50
2020/12/08 07:21:13;;;;;;;9.40;5.57;;;0.80;99.90;;;;;;4219036;27;21546;-48
2020/12/08 07:23:14;;;;;;;7.97;4.33;;;0.80;99.90;;;;;;4236104;27;20340;-39
2020/12/08 07:25:17;;;;;;;7.60;5.17;;;0.80;99.90;;;;;;4239614;27;20267;-46
2020/12/08 07:27:18;;;;;;;11.17;5.07;;;0.80;99.90;;;;;;4239250;27;20291;-39
2020/12/08 07:29:19;;;;;;;8.60;6.50;;;0.80;99.90;;;;;;4239847;27;20272;-40
2020/12/08 07:31:23;;;;;;;6.77;4.97;;;0.90;99.90;;;;;;4230496;27;20272;-41
2020/12/08 07:33:31;;;;;;;11.70;5.37;;;0.90;99.90;;;;;;4219970;28;20341;-40
2020/12/08 07:35:35;;;;;;;12.63;4.83;;;0.90;99.90;;;;;;4224824;27;20336;-39
2020/12/08 07:37:37;;;;;;;9.60;3.90;;;0.80;99.90;;;;;;4238395;27;20390;-43
2020/12/08 07:39:38;;;;;;;5.37;3.10;;;0.80;99.90;;;;;;4238388;27;20275;-40
2020/12/08 07:41:40;;;;;;;6.63;3.40;;;0.80;99.90;;;;;;4230312;27;20434;-41
2020/12/08 07:43:41;;;;;;;5.37;3.70;;;0.80;99.90;;;;;;4222034;27;20767;-37
2020/12/08 07:45:44;;;;;;;6.33;3.20;;;0.80;99.90;;;;;;4221833;28;20613;-36
2020/12/08 07:47:59;;;;;;;8.77;4.50;;;0.80;99.90;;;;;;4221746;28;20345;-45
2020/12/08 07:50:01;;;;;;;5.70;3.40;;;0.80;99.90;;;;;;4222829;27;20280;-41
2020/12/08 07:52:02;;;;;;;7.40;4.60;;;0.80;99.90;;;;;;4221887;28;20329;-37
2020/12/08 07:54:05;;;;;;;8.27;4.60;;;0.80;99.90;;;;;;4222550;28;20272;-46
2020/12/08 07:56:06;;;;;;;10.93;5.87;;;0.80;99.90;;;;;;4221987;27;20344;-39
2020/12/08 07:58:07;;;;;;;10.97;6.10;;;0.70;99.90;;;;;;4230888;27;20280;-38
2020/12/08 08:00:08;;;;;;;10.93;5.37;;;0.70;99.90;;;;;;4238623;27;20271;-40
2020/12/08 08:02:10;;;;;;;16.77;6.10;;;0.70;99.90;;;;;;4225587;27;20842;-53
2020/12/08 08:04:11;;;;;;;12.77;6.83;;;0.70;99.90;;;;;;4221660;28;20317;-38
2020/12/08 08:06:14;;;;;;;11.53;5.50;;;0.70;99.90;;;;;;4229120;27;20332;-38
2020/12/08 08:08:15;;;;;;;11.57;5.90;;;0.70;99.90;;;;;;4245425;27;20271;-37
2020/12/08 08:10:16;;;;;;;11.27;5.40;;;0.60;99.90;;;;;;4239289;27;20260;-38
2020/12/08 08:12:17;;;;;;;12.03;5.83;;;0.60;99.90;;;;;;4238975;27;20264;-37
2020/12/08 08:14:20;;;;;;;14.03;6.43;;;0.60;99.90;;;;;;4239266;27;21011;-38
2020/12/08 08:16:21;;;;;;;12.47;6.37;;;0.60;99.90;;;;;;4238484;27;20324;-40
2020/12/08 08:18:22;;;;;;;13.13;6.27;;;0.60;99.90;;;;;;4238143;27;20263;-48
2020/12/08 08:20:23;;;;;;;18.43;8.73;;;0.60;99.90;;;;;;4237562;27;20271;-38
2020/12/08 08:22:24;;;;;;;23.57;11.77;;;0.60;99.90;;;;;;4236766;27;20279;-41
2020/12/08 08:24:25;;;;;;;24.83;11.60;;;0.60;99.90;;;;;;4237418;27;20340;-38
2020/12/08 08:26:27;;;;;;;21.47;11.20;;;0.60;99.90;;;;;;4237657;27;20321;-39
2020/12/08 08:28:29;;;;;;;27.57;11.43;;;0.60;99.90;;;;;;4239171;27;20259;-40
2020/12/08 08:30:30;;;;;;;19.03;8.67;;;0.60;99.90;;;;;;4238310;27;21286;-50
2020/12/08 08:32:31;;;;;;;14.93;7.50;;;0.60;99.90;;;;;;4237794;27;20325;-44
2020/12/08 08:34:32;;;;;;;14.13;7.07;;;0.60;99.90;;;;;;4236763;27;20657;-41
2020/12/08 08:36:33;;;;;;;15.80;7.10;;;0.50;99.90;;;;;;4216966;28;20283;-43
2020/12/08 08:38:34;;;;;;;18.33;8.23;;;0.60;99.90;;;;;;4225717;28;20350;-40
2020/12/08 08:40:35;;;;;;;19.43;7.33;;;0.60;99.90;;;;;;4237623;28;20324;-40
2020/12/08 08:42:36;;;;;;;13.70;7.93;;;0.60;99.90;;;;;;4238291;27;20312;-44
2020/12/08 08:44:38;;;;;;;12.40;7.00;;;0.60;99.90;;;;;;4239675;27;21009;-48
2020/12/08 08:46:40;;;;;;;14.70;8.10;;;0.60;99.90;;;;;;4244242;27;20685;-46
2020/12/08 08:48:41;;;;;;;12.87;7.20;;;0.60;99.90;;;;;;4252059;27;20347;-39
2020/12/08 08:50:42;;;;;;;13.83;7.63;;;0.60;99.90;;;;;;4241967;27;20263;-47
2020/12/08 08:52:43;;;;;;;14.47;7.43;;;0.70;99.90;;;;;;4240153;27;20652;-57
2020/12/08 08:54:44;;;;;;;16.17;6.80;;;0.60;99.90;;;;;;4241793;27;20319;-50
2020/12/08 08:56:45;;;;;;;19.10;7.80;;;0.70;99.90;;;;;;4241472;27;20287;-45
2020/12/08 08:58:46;;;;;;;17.07;7.70;;;0.70;99.90;;;;;;4241653;27;20391;-50
2020/12/08 09:00:48;;;;;;;17.97;9.07;;;0.70;99.90;;;;;;4242001;27;20306;-49
2020/12/08 09:02:49;;;;;;;19.10;8.20;;;0.70;99.90;;;;;;4242150;27;20263;-41
2020/12/08 09:04:50;;;;;;;19.70;8.70;;;0.80;99.90;;;;;;4223186;28;20276;-44
2020/12/08 09:06:51;;;;;;;18.33;8.43;;;0.80;99.90;;;;;;4244531;27;20295;-43
2020/12/08 09:08:52;;;;;;;20.40;8.53;;;0.90;99.90;;;;;;4241044;27;20331;-44
2020/12/08 09:10:53;;;;;;;12.07;5.50;;;0.90;99.90;;;;;;4241889;27;21227;-48
2020/12/08 09:12:54;;;;;;;13.77;6.93;;;1.00;99.90;;;;;;4241769;27;20319;-43
2020/12/08 09:14:58;;;;;;;7.57;4.63;;;1.00;99.90;;;;;;4240820;27;20279;-51
2020/12/08 09:16:59;;;;;;;8.90;3.97;;;1.00;99.90;;;;;;4223325;28;20313;-53
2020/12/08 09:19:00;;;;;;;8.57;4.47;;;1.00;99.90;;;;;;4240910;27;20921;-49
2020/12/08 09:21:02;;;;;;;9.00;4.47;;;1.10;99.90;;;;;;4241902;27;20297;-46
2020/12/08 09:23:03;;;;;;;14.37;6.13;;;1.10;99.90;;;;;;4240296;27;20275;-50
2020/12/08 09:25:05;;;;;;;12.10;4.43;;;1.10;99.90;;;;;;4241796;27;20758;-53
2020/12/08 09:27:06;;;;;;;10.20;5.83;;;1.10;99.90;;;;;;4243693;27;20299;-46
2020/12/08 09:29:07;;;;;;;10.73;5.87;;;1.10;99.90;;;;;;4240773;27;20279;-41
2020/12/08 09:31:10;;;;;;;14.00;7.23;;;1.20;99.90;;;;;;4241290;27;20332;-40
2020/12/08 09:33:11;;;;;;;12.63;5.37;;;1.20;99.90;;;;;;4241892;27;20272;-54
2020/12/08 09:35:12;;;;;;;32.53;15.90;;;1.20;99.90;;;;;;4240820;27;20374;-48
2020/12/08 09:37:13;;;;;;;22.87;13.13;;;1.20;99.90;;;;;;4241201;27;20279;-50
2020/12/08 09:39:14;;;;;;;16.07;10.73;;;1.30;99.90;;;;;;4241580;27;20660;-50
2020/12/08 09:41:15;;;;;;;14.63;7.97;;;1.30;99.90;;;;;;4240441;27;20283;-41
2020/12/08 09:43:16;;;;;;;10.63;6.43;;;1.30;99.90;;;;;;4241534;27;20600;-54
2020/12/08 09:45:18;;;;;;;9.50;6.43;;;1.40;99.90;;;;;;4240514;27;20426;-43
2020/12/08 09:47:19;;;;;;;9.10;5.20;;;1.40;99.90;;;;;;4239798;27;20306;-39
2020/12/08 09:49:20;;;;;;;10.53;6.43;;;1.50;99.90;;;;;;4231356;27;20336;-46
2020/12/08 09:51:21;;;;;;;9.13;6.00;;;1.50;99.90;;;;;;4240071;27;20279;-42
2020/12/08 09:53:22;;;;;;;11.87;5.93;;;1.50;99.90;;;;;;4240210;27;20815;-43
2020/12/08 09:55:23;;;;;;;10.77;6.67;;;1.50;99.90;;;;;;4239178;27;20290;-42
2020/12/08 09:57:25;;;;;;;11.50;5.13;;;1.60;99.90;;;;;;4240436;27;20327;-50
2020/12/08 09:59:26;;;;;;;6.63;3.20;;;1.60;99.90;;;;;;4240592;27;20284;-47
2020/12/08 10:01:32;;;;;;;5.37;2.67;;;1.60;99.90;;;;;;4240428;27;20336;-46
2020/12/08 10:03:36;;;;;;;5.03;2.73;;;1.60;99.90;;;;;;4240893;27;20328;-45
2020/12/08 10:05:37;;;;;;;4.47;2.47;;;1.60;99.90;;;;;;4240120;27;20279;-41
2020/12/08 10:07:38;;;;;;;5.47;3.80;;;1.60;99.90;;;;;;4249864;27;20359;-44
2020/12/08 10:09:40;;;;;;;5.63;3.10;;;1.70;99.90;;;;;;4257789;27;21136;-46
2020/12/08 10:11:41;;;;;;;5.03;3.40;;;1.70;99.90;;;;;;4250326;27;20287;-51
2020/12/08 10:13:42;;;;;;;4.10;2.67;;;1.70;99.90;;;;;;4241526;27;20275;-47
2020/12/08 10:15:43;;;;;;;4.43;2.70;;;1.70;99.90;;;;;;4240468;27;20325;-51
2020/12/08 10:17:45;;;;;;;4.60;2.50;;;1.80;99.90;;;;;;4240580;27;20272;-47
2020/12/08 10:19:46;;;;;;;5.43;2.33;;;1.80;99.90;;;;;;4239432;27;20279;-48
2020/12/08 10:21:47;;;;;;;5.10;3.03;;;1.80;99.90;;;;;;4239879;27;20328;-46
2020/12/08 10:23:49;;;;;;;4.23;2.70;;;1.80;99.90;;;;;;4239087;27;20291;-45
2020/12/08 10:25:50;;;;;;;5.53;2.70;;;1.80;99.90;;;;;;4239918;27;20284;-54
2020/12/08 10:27:52;;;;;;;3.97;2.50;;;1.80;99.90;;;;;;4239727;27;20299;-47
2020/12/08 10:29:53;;;;;;;5.63;3.37;;;1.90;99.90;;;;;;4240805;27;20264;-47
2020/12/08 10:31:55;;;;;;;5.43;2.93;;;1.90;99.90;;;;;;4240322;27;20275;-46
2020/12/08 10:33:56;;;;;;;9.67;4.53;;;1.90;99.90;;;;;;4239916;27;20271;-53
2020/12/08 10:35:57;;;;;;;7.97;4.67;;;1.90;99.90;;;;;;4239353;27;20678;-46
2020/12/08 10:37:58;;;;;;;12.33;5.20;;;1.90;99.90;;;;;;4240569;27;20274;-45
2020/12/08 10:39:59;;;;;;;13.40;5.17;;;1.90;99.90;;;;;;4238758;27;20279;-44
2020/12/08 10:42:00;;;;;;;7.63;4.20;;;2.00;99.90;;;;;;4240128;27;20271;-56